createdAt,value
2019-04-01T00:01:36.323Z,69.49
2019-04-01T00:06:50.281Z,68.29
2019-04-01T00:09:16.521Z,68.44
2019-04-01T00:11:42.800Z,69.38
2019-04-01T00:14:09.023Z,69.19
2019-04-01T00:16:35.273Z,68.01
2019-04-01T00:19:03.269Z,68.08
2019-04-01T00:21:29.666Z,67.78
2019-04-01T00:23:55.912Z,68.41
2019-04-01T00:26:22.252Z,68.47
2019-04-01T00:28:48.521Z,68.81
2019-04-01T00:31:14.788Z,67.69
2019-04-01T00:33:41.045Z,68.95
2019-04-01T00:36:07.276Z,68.62
2019-04-01T00:38:33.536Z,69.08
2019-04-01T00:40:59.891Z,68.66
2019-04-01T00:46:03.554Z,67.97
2019-04-01T00:48:29.795Z,68.96
2019-04-01T00:50:56.046Z,69.21
2019-04-01T00:53:22.336Z,69.17
2019-04-01T00:55:48.556Z,69.46
2019-04-01T00:58:14.814Z,69.21
2019-04-01T01:00:41.050Z,69.31
2019-04-01T01:03:07.292Z,69.25
2019-04-01T01:05:33.551Z,68.91
2019-04-01T01:07:59.804Z,68.86
2019-04-01T01:10:26.059Z,69.33
2019-04-01T01:12:52.288Z,68.56
2019-04-01T01:15:18.584Z,68.83
2019-04-01T01:17:44.813Z,68.38
2019-04-01T01:20:11.095Z,68.26
2019-04-01T01:22:37.371Z,68.52
2019-04-01T01:25:44.907Z,68.53
2019-04-01T01:28:11.160Z,69.16
2019-04-01T01:30:37.407Z,69.60
2019-04-01T01:33:03.640Z,69.99
2019-04-01T01:38:24.237Z,70.36
2019-04-01T01:40:50.486Z,70.05
2019-04-01T01:43:16.726Z,70.53
2019-04-01T01:45:43.021Z,70.97
2019-04-01T01:48:09.279Z,70.42
2019-04-01T01:50:35.581Z,70.94
2019-04-01T01:53:01.831Z,70.88
2019-04-01T01:55:28.075Z,70.63
2019-04-01T01:57:54.341Z,71.18
2019-04-01T02:02:54.374Z,71.25
2019-04-01T02:05:20.629Z,71.45
2019-04-01T02:07:46.889Z,71.26
2019-04-01T02:10:34.683Z,71.16
2019-04-01T02:13:00.940Z,71.22
2019-04-01T02:15:27.329Z,72.39
2019-04-01T02:17:53.604Z,72.14
2019-04-01T02:20:19.863Z,71.96
2019-04-01T02:22:46.109Z,71.51
2019-04-01T02:25:12.387Z,71.15
2019-04-01T02:27:38.627Z,71.87
2019-04-01T02:30:04.965Z,72.48
2019-04-01T02:32:31.229Z,71.76
2019-04-01T02:34:57.580Z,72.35
2019-04-01T02:37:23.857Z,72.40
2019-04-01T02:39:50.107Z,72.32
2019-04-01T02:42:16.356Z,73.06
2019-04-01T02:44:42.605Z,73.30
2019-04-01T02:47:08.867Z,72.78
2019-04-01T02:49:35.094Z,73.48
2019-04-01T02:52:01.391Z,74.26
2019-04-01T02:54:27.654Z,73.83
2019-04-01T02:56:53.900Z,73.96
2019-04-01T02:59:20.131Z,74.12
2019-04-01T03:01:46.372Z,73.75
2019-04-01T03:04:12.616Z,75.04
2019-04-01T03:06:38.880Z,74.21
2019-04-01T03:12:18.511Z,73.78
2019-04-01T03:14:44.755Z,74.12
2019-04-01T03:17:11.013Z,73.93
2019-04-01T03:19:37.242Z,73.47
2019-04-01T03:22:03.543Z,73.78
2019-04-01T03:24:29.792Z,73.77
2019-04-01T03:26:56.065Z,73.79
2019-04-01T03:29:22.320Z,74.36
2019-04-01T03:31:48.556Z,75.77
2019-04-01T03:34:15.070Z,74.87
2019-04-01T03:36:42.977Z,74.34
2019-04-01T03:39:09.231Z,75.41
2019-04-01T03:41:35.477Z,74.59
2019-04-01T03:44:01.748Z,74.56
2019-04-01T03:46:27.986Z,74.62
2019-04-01T03:48:54.248Z,74.80
2019-04-01T03:51:20.507Z,75.42
2019-04-01T03:53:46.760Z,74.50
2019-04-01T03:56:13.014Z,75.00
2019-04-01T03:58:39.275Z,75.81
2019-04-01T04:01:05.559Z,75.91
2019-04-01T04:03:31.799Z,75.63
2019-04-01T04:05:58.027Z,76.08
2019-04-01T04:08:24.399Z,75.67
2019-04-01T04:10:50.793Z,76.28
2019-04-01T04:13:17.065Z,75.90
2019-04-01T04:15:43.311Z,75.37
2019-04-01T04:18:09.580Z,76.41
2019-04-01T04:20:35.888Z,76.06
2019-04-01T04:23:02.125Z,76.03
2019-04-01T04:25:28.452Z,75.21
2019-04-01T04:27:54.765Z,75.09
2019-04-01T04:30:21.908Z,76.17
2019-04-01T04:32:48.200Z,75.85
2019-04-01T04:35:14.452Z,75.95
2019-04-01T04:37:40.727Z,75.67
2019-04-01T04:40:07.115Z,75.64
2019-04-01T04:48:47.007Z,75.70
2019-04-01T04:51:13.416Z,75.96
2019-04-01T04:53:59.493Z,75.25
2019-04-01T04:56:45.497Z,75.09
2019-04-01T04:59:11.766Z,73.42
2019-04-01T05:01:38.031Z,72.95
2019-04-01T05:04:04.269Z,72.78
2019-04-01T05:06:30.531Z,72.90
2019-04-01T05:08:56.763Z,72.02
2019-04-01T05:11:22.992Z,71.87
2019-04-01T05:13:49.235Z,72.12
2019-04-01T05:16:15.471Z,70.27
2019-04-01T05:18:41.702Z,69.16
2019-04-01T05:24:50.118Z,68.04
2019-04-01T05:30:16.998Z,69.12
2019-04-01T05:33:24.539Z,69.19
2019-04-01T05:35:50.812Z,69.27
2019-04-01T05:38:17.167Z,69.32
2019-04-01T05:40:43.397Z,69.49
2019-04-01T05:43:09.636Z,69.32
2019-04-01T05:45:35.881Z,69.20
2019-04-01T05:48:02.120Z,69.34
2019-04-01T05:50:28.353Z,69.77
2019-04-01T05:52:54.592Z,69.58
2019-04-01T05:55:20.863Z,69.13
2019-04-01T05:57:47.112Z,69.19
2019-04-01T06:03:01.062Z,70.11
2019-04-01T06:05:27.294Z,70.65
2019-04-01T06:07:53.535Z,69.55
2019-04-01T06:10:19.762Z,69.74
2019-04-01T06:12:46.050Z,69.92
2019-04-01T06:15:12.275Z,69.88
2019-04-01T06:17:38.519Z,68.64
2019-04-01T06:23:06.038Z,67.92
2019-04-01T06:28:39.615Z,68.35
2019-04-01T06:31:05.880Z,66.44
2019-04-01T06:33:32.114Z,67.70
2019-04-01T06:35:58.341Z,67.56
2019-04-01T06:38:24.591Z,67.27
2019-04-01T06:40:50.847Z,65.68
2019-04-01T06:43:17.096Z,66.97
2019-04-01T06:45:43.319Z,65.69
2019-04-01T06:48:09.561Z,66.07
2019-04-01T06:50:35.807Z,66.18
2019-04-01T06:53:02.057Z,66.35
2019-04-01T06:55:28.279Z,66.11
2019-04-01T06:57:54.515Z,66.31
2019-04-01T07:06:28.711Z,64.94
2019-04-01T07:08:54.948Z,62.87
2019-04-01T07:11:21.196Z,64.08
2019-04-01T07:13:47.428Z,61.59
2019-04-01T07:16:15.754Z,63.43
2019-04-01T07:18:41.784Z,64.09
2019-04-01T07:21:08.010Z,64.08
2019-04-01T07:23:34.257Z,63.86
2019-04-01T07:26:00.536Z,63.33
2019-04-01T07:28:26.779Z,62.85
2019-04-01T07:30:53.011Z,63.31
2019-04-01T07:33:19.237Z,62.30
2019-04-01T07:35:46.805Z,62.47
2019-04-01T07:41:14.051Z,62.81
2019-04-01T07:43:40.579Z,61.90
2019-04-01T07:46:08.247Z,61.07
2019-04-01T07:48:34.962Z,61.43
2019-04-01T07:51:01.228Z,60.75
2019-04-01T07:53:27.450Z,59.88
2019-04-01T07:55:53.688Z,61.00
2019-04-01T07:58:19.908Z,61.11
2019-04-01T08:00:46.149Z,61.58
2019-04-01T08:03:12.479Z,60.25
2019-04-01T08:05:38.713Z,59.13
2019-04-01T08:08:04.937Z,61.39
2019-04-01T08:10:31.178Z,60.78
2019-04-01T08:12:57.404Z,60.96
2019-04-01T08:15:23.646Z,59.91
2019-04-01T08:17:49.864Z,62.03
2019-04-01T08:20:16.304Z,61.52
2019-04-01T08:22:43.429Z,61.68
2019-04-01T08:25:10.796Z,61.97
2019-04-01T08:27:37.142Z,61.89
2019-04-01T08:30:23.112Z,62.03
2019-04-01T08:32:49.342Z,61.30
2019-04-01T08:35:15.592Z,62.66
2019-04-01T08:37:41.830Z,62.40
2019-04-01T08:43:02.465Z,62.00
2019-04-01T08:45:28.691Z,62.73
2019-04-01T08:47:54.923Z,63.12
2019-04-01T08:56:16.675Z,62.23
2019-04-01T08:58:42.897Z,61.68
2019-04-01T09:01:09.131Z,61.41
2019-04-01T09:03:35.361Z,60.20
2019-04-01T09:06:01.777Z,59.74
2019-04-01T09:09:09.460Z,60.30
2019-04-01T09:11:38.474Z,60.54
2019-04-01T09:14:03.835Z,60.62
2019-04-01T09:17:11.379Z,60.81
2019-04-01T09:19:37.602Z,60.79
2019-04-01T09:22:03.855Z,62.84
2019-04-01T09:24:30.083Z,62.80
2019-04-01T09:26:56.326Z,63.48
2019-04-01T09:29:22.552Z,63.44
2019-04-01T09:31:48.803Z,63.61
2019-04-01T09:34:15.039Z,63.56
2019-04-01T09:36:41.266Z,63.95
2019-04-01T09:39:07.499Z,63.88
2019-04-01T09:41:33.830Z,64.58
2019-04-01T09:44:00.092Z,63.87
2019-04-01T09:46:26.287Z,64.36
2019-04-01T09:48:52.525Z,65.56
2019-04-01T09:51:18.760Z,65.90
2019-04-01T09:53:45.075Z,66.96
2019-04-01T09:56:11.324Z,66.52
2019-04-01T09:58:37.563Z,69.55
2019-04-01T10:01:03.790Z,70.33
2019-04-01T10:03:30.026Z,69.46
2019-04-01T10:05:56.248Z,71.91
2019-04-01T10:08:22.488Z,70.94
2019-04-01T10:10:48.707Z,71.50
2019-04-01T10:13:14.953Z,74.00
2019-04-01T10:15:41.172Z,74.02
2019-04-01T10:18:07.420Z,73.35
2019-04-01T10:20:33.644Z,75.05
2019-04-01T10:22:59.890Z,75.05
2019-04-01T10:25:26.113Z,74.89
2019-04-01T10:27:52.341Z,74.77
2019-04-01T10:33:12.380Z,76.14
2019-04-01T10:35:38.604Z,76.98
2019-04-01T10:38:04.829Z,76.56
2019-04-01T10:40:31.076Z,76.76
2019-04-01T10:42:57.522Z,75.43
2019-04-01T10:45:23.761Z,75.75
2019-04-01T10:47:49.993Z,75.51
2019-04-01T10:50:57.562Z,73.09
2019-04-01T10:53:23.871Z,73.24
2019-04-01T10:55:50.155Z,73.24
2019-04-01T10:58:16.353Z,71.77
2019-04-01T11:00:42.583Z,72.11
2019-04-01T11:03:08.960Z,72.00
2019-04-01T11:05:35.198Z,71.15
2019-04-01T11:08:01.562Z,71.46
2019-04-01T11:10:27.837Z,70.50
2019-04-01T11:12:54.259Z,70.78
2019-04-01T11:17:54.315Z,69.94
2019-04-01T11:20:20.660Z,69.63
2019-04-01T11:22:46.886Z,68.58
2019-04-01T11:25:13.324Z,68.95
2019-04-01T11:27:39.546Z,68.74
2019-04-01T11:30:47.118Z,69.39
2019-04-01T11:33:13.326Z,68.34
2019-04-01T11:35:39.550Z,67.55
2019-04-01T11:38:05.825Z,68.74
2019-04-01T11:40:32.034Z,67.79
2019-04-01T11:46:05.604Z,66.68
2019-04-01T11:48:31.855Z,65.36
2019-04-01T11:50:58.166Z,65.58
2019-04-01T11:53:24.384Z,64.65
2019-04-01T11:55:50.625Z,63.80
2019-04-01T11:58:16.844Z,63.84
2019-04-01T12:00:43.079Z,63.31
2019-04-01T12:03:09.294Z,63.42
2019-04-01T12:05:35.618Z,63.07
2019-04-01T12:08:01.860Z,61.12
2019-04-01T12:10:28.079Z,62.62
2019-04-01T12:12:54.331Z,62.93
2019-04-01T12:15:20.553Z,61.76
2019-04-01T12:17:46.808Z,62.58
2019-04-01T12:20:13.027Z,60.58
2019-04-01T12:22:40.662Z,61.28
2019-04-01T12:25:07.451Z,61.04
2019-04-01T12:27:33.644Z,58.66
2019-04-01T12:29:59.878Z,60.92
2019-04-01T12:32:26.107Z,57.99
2019-04-01T12:34:52.336Z,57.83
2019-04-01T12:37:18.572Z,58.49
2019-04-01T12:39:44.796Z,58.00
2019-04-01T12:42:11.032Z,56.98
2019-04-01T12:44:37.263Z,58.29
2019-04-01T12:47:03.500Z,58.59
2019-04-01T12:49:29.728Z,59.04
2019-04-01T12:51:58.352Z,58.44
2019-04-01T12:54:24.117Z,56.78
2019-04-01T12:56:50.342Z,57.38
2019-04-01T12:59:16.579Z,59.07
2019-04-01T13:01:42.832Z,57.06
2019-04-01T13:04:09.068Z,56.40
2019-04-01T13:06:35.307Z,58.24
2019-04-01T13:09:01.547Z,57.98
2019-04-01T13:11:27.781Z,58.43
2019-04-01T13:13:54.128Z,57.78
2019-04-01T13:16:20.358Z,55.16
2019-04-01T13:18:47.414Z,55.92
2019-04-01T13:21:14.721Z,55.99
2019-04-01T13:23:40.959Z,58.11
2019-04-01T13:26:07.180Z,56.53
2019-04-01T13:28:33.429Z,58.37
2019-04-01T13:30:59.652Z,57.40
2019-04-01T13:33:25.891Z,58.33
2019-04-01T13:35:52.903Z,58.21
2019-04-01T13:38:20.362Z,58.53
2019-04-01T13:40:46.589Z,58.15
2019-04-01T13:43:15.153Z,58.56
2019-04-01T13:45:40.947Z,58.04
2019-04-01T13:48:07.167Z,57.08
2019-04-01T13:50:33.435Z,57.17
2019-04-01T13:52:59.688Z,57.48
2019-04-01T13:55:25.928Z,56.27
2019-04-01T13:57:52.153Z,56.81
2019-04-01T14:00:20.255Z,56.21
2019-04-01T14:02:46.740Z,56.23
2019-04-01T14:05:54.441Z,57.07
2019-04-01T14:08:22.219Z,57.04
2019-04-01T14:10:48.855Z,55.03
2019-04-01T14:13:15.083Z,57.66
2019-04-01T14:15:41.319Z,57.50
2019-04-01T14:18:07.544Z,56.92
2019-04-01T14:20:33.785Z,56.23
2019-04-01T14:23:00.005Z,56.25
2019-04-01T14:25:26.239Z,56.52
2019-04-01T14:27:52.464Z,56.29
2019-04-01T14:30:18.801Z,56.45
2019-04-01T14:32:45.029Z,57.21
2019-04-01T14:35:11.265Z,57.58
2019-04-01T14:37:37.508Z,57.73
2019-04-01T14:40:45.043Z,55.84
2019-04-01T14:43:11.282Z,56.75
2019-04-01T14:45:37.573Z,58.00
2019-04-01T14:48:03.788Z,57.86
2019-04-01T14:50:30.027Z,57.88
2019-04-01T14:52:56.253Z,58.01
2019-04-01T14:55:22.496Z,58.12
2019-04-01T14:57:48.742Z,57.67
2019-04-01T15:03:08.940Z,56.90
2019-04-01T15:05:35.280Z,57.09
2019-04-01T15:08:01.502Z,57.40
2019-04-01T15:10:27.729Z,58.05
2019-04-01T15:13:05.147Z,57.48
2019-04-01T15:15:22.104Z,58.28
2019-04-01T15:17:48.371Z,57.47
2019-04-01T15:20:14.684Z,57.85
2019-04-01T15:22:40.921Z,58.25
2019-04-01T15:25:07.149Z,58.37
2019-04-01T15:27:33.613Z,58.33
2019-04-01T15:30:01.533Z,56.60
2019-04-01T15:32:27.787Z,58.27
2019-04-01T15:34:54.014Z,58.06
2019-04-01T15:37:20.243Z,58.56
2019-04-01T15:39:47.383Z,58.70
2019-04-01T15:42:14.679Z,59.08
2019-04-01T15:44:40.958Z,59.55
2019-04-01T15:47:08.652Z,59.23
2019-04-01T15:49:35.324Z,58.52
2019-04-01T15:52:01.566Z,59.45
2019-04-01T15:54:27.787Z,58.69
2019-04-01T15:56:54.015Z,59.38
2019-04-01T15:59:20.271Z,59.38
2019-04-01T16:01:46.501Z,59.46
2019-04-01T16:04:16.206Z,59.62
2019-04-01T16:06:40.869Z,60.43
2019-04-01T16:09:07.208Z,60.39
2019-04-01T16:11:33.434Z,60.55
2019-04-01T16:13:59.686Z,60.05
2019-04-01T16:16:25.903Z,60.21
2019-04-01T16:18:52.236Z,59.91
2019-04-01T16:21:18.702Z,60.05
2019-04-01T16:23:45.115Z,60.25
2019-04-01T16:26:11.348Z,59.71
2019-04-01T16:28:37.584Z,60.79
2019-04-01T16:31:03.812Z,60.92
2019-04-01T16:33:30.080Z,60.73
2019-04-01T16:35:56.301Z,61.55
2019-04-01T16:38:22.543Z,61.72
2019-04-01T16:40:50.946Z,61.98
2019-04-01T16:43:17.271Z,62.16
2019-04-01T16:45:45.044Z,62.77
2019-04-01T16:48:11.272Z,62.54
2019-04-01T16:50:37.516Z,62.78
2019-04-01T16:53:03.747Z,63.08
2019-04-01T16:55:29.989Z,63.50
2019-04-01T16:57:56.210Z,63.32
2019-04-01T17:01:03.777Z,63.04
2019-04-01T17:03:30.004Z,62.70
2019-04-01T17:05:56.241Z,62.87
2019-04-01T17:08:22.464Z,63.66
2019-04-01T17:10:48.700Z,63.71
2019-04-01T17:13:14.941Z,64.21
2019-04-01T17:15:41.274Z,64.44
2019-04-01T17:18:07.518Z,64.60
2019-04-01T17:20:33.741Z,65.38
2019-04-01T17:23:00.962Z,65.09
2019-04-01T17:25:28.159Z,65.05
2019-04-01T17:27:54.384Z,64.85
2019-04-01T17:30:20.628Z,64.73
2019-04-01T17:32:46.868Z,65.16
2019-04-01T17:35:13.533Z,65.35
2019-04-01T17:37:41.250Z,65.39
2019-04-01T17:40:48.795Z,65.50
2019-04-01T17:43:16.317Z,65.61
2019-04-01T17:45:43.198Z,66.02
2019-04-01T17:48:09.523Z,66.60
2019-04-01T17:51:17.104Z,66.38
2019-04-01T17:53:43.343Z,66.92
2019-04-01T17:56:09.568Z,66.75
2019-04-01T17:58:35.812Z,67.06
2019-04-01T18:01:02.057Z,67.29
2019-04-01T18:03:28.295Z,67.60
2019-04-01T18:05:54.538Z,68.01
2019-04-01T18:08:20.786Z,68.17
2019-04-01T18:10:48.711Z,68.92
2019-04-01T18:13:15.168Z,69.34
2019-04-01T18:15:41.409Z,69.66
2019-04-01T18:18:07.655Z,69.16
2019-04-01T18:20:34.449Z,69.93
2019-04-01T18:23:02.038Z,71.55
2019-04-01T18:25:28.267Z,69.71
2019-04-01T18:27:54.515Z,70.96
2019-04-01T18:33:34.460Z,70.37
2019-04-01T18:36:00.685Z,70.03
2019-04-01T18:38:26.933Z,70.56
2019-04-01T18:40:53.157Z,70.81
2019-04-01T18:43:19.396Z,71.45
2019-04-01T18:45:45.619Z,70.16
2019-04-01T18:48:14.656Z,71.16
2019-04-01T18:50:39.992Z,70.03
2019-04-01T18:53:06.406Z,69.84
2019-04-01T18:55:34.384Z,69.26
2019-04-01T18:58:00.642Z,70.19
2019-04-01T19:00:26.879Z,69.66
2019-04-01T19:02:55.498Z,70.19
2019-04-01T19:05:21.286Z,69.73
2019-04-01T19:07:47.507Z,69.55
2019-04-01T19:13:12.279Z,70.37
2019-04-01T19:15:37.361Z,69.79
2019-04-01T19:18:04.253Z,70.84
2019-04-01T19:20:30.685Z,69.95
2019-04-01T19:22:56.943Z,70.20
2019-04-01T19:25:23.519Z,69.99
2019-04-01T19:27:51.344Z,69.99
2019-04-01T19:30:17.585Z,70.73
2019-04-01T19:32:43.846Z,70.99
2019-04-01T19:35:10.288Z,71.96
2019-04-01T19:37:36.531Z,70.98
2019-04-01T19:40:44.091Z,70.94
2019-04-01T19:43:10.320Z,71.00
2019-04-01T19:45:36.656Z,70.52
2019-04-01T19:48:03.419Z,70.86
2019-04-01T19:53:25.159Z,71.25
2019-04-01T19:55:51.414Z,70.97
2019-04-01T19:58:17.716Z,70.72
2019-04-01T20:00:43.973Z,71.35
2019-04-01T20:03:10.200Z,71.38
2019-04-01T20:05:36.444Z,71.97
2019-04-01T20:08:02.662Z,72.39
2019-04-01T20:10:28.910Z,73.32
2019-04-01T20:12:55.144Z,72.97
2019-04-01T20:15:21.568Z,72.80
2019-04-01T20:17:47.795Z,73.19
2019-04-01T20:20:14.668Z,73.01
2019-04-01T20:22:42.196Z,73.83
2019-04-01T20:25:50.185Z,72.56
2019-04-01T20:28:16.471Z,72.34
2019-04-01T20:31:24.011Z,74.01
2019-04-01T20:33:50.252Z,73.34
2019-04-01T20:36:27.979Z,72.19
2019-04-01T20:38:44.764Z,73.12
2019-04-01T20:41:11.015Z,72.91
2019-04-01T20:43:37.237Z,73.32
2019-04-01T20:46:03.509Z,73.73
2019-04-01T20:48:29.759Z,73.89
2019-04-01T20:50:57.175Z,74.65
2019-04-01T20:53:24.294Z,74.14
2019-04-01T20:55:50.821Z,74.52
2019-04-01T20:58:18.694Z,75.04
2019-04-01T21:00:44.911Z,74.90
2019-04-01T21:03:11.159Z,74.93
2019-04-01T21:05:37.403Z,75.16
2019-04-01T21:08:03.638Z,75.05
2019-04-01T21:10:29.863Z,76.78
2019-04-01T21:12:56.098Z,76.00
2019-04-01T21:15:22.339Z,74.51
2019-04-01T21:17:48.575Z,74.86
2019-04-01T21:20:14.921Z,74.11
2019-04-01T21:22:41.161Z,73.46
2019-04-01T21:25:07.584Z,73.69
2019-04-01T21:27:33.822Z,73.67
2019-04-01T21:30:00.050Z,74.21
2019-04-01T21:32:26.292Z,73.70
2019-04-01T21:34:52.532Z,73.49
2019-04-01T21:37:18.754Z,73.33
2019-04-01T21:39:44.987Z,73.67
2019-04-01T21:42:11.220Z,73.03
2019-04-01T21:44:37.456Z,73.62
2019-04-01T21:47:03.683Z,73.34
2019-04-01T21:49:29.936Z,73.25
2019-04-01T21:51:56.276Z,73.34
2019-04-01T21:54:22.536Z,74.34
2019-04-01T21:56:48.766Z,74.32
2019-04-01T21:59:15.014Z,73.67
2019-04-01T22:01:41.244Z,74.73
2019-04-01T22:04:07.480Z,74.29
2019-04-01T22:06:33.710Z,74.54
2019-04-01T22:08:59.947Z,74.59
2019-04-01T22:11:26.168Z,74.81
2019-04-01T22:13:52.409Z,75.01
2019-04-01T22:16:19.122Z,75.30
2019-04-01T22:18:46.768Z,75.59
2019-04-01T22:21:13.009Z,75.89
2019-04-01T22:23:39.228Z,75.80
2019-04-01T22:26:05.466Z,76.62
2019-04-01T22:28:31.700Z,75.63
2019-04-01T22:30:57.932Z,75.72
2019-04-01T22:33:24.163Z,76.06
2019-04-01T22:35:50.400Z,75.91
2019-04-01T22:38:24.891Z,75.93
2019-04-01T22:40:44.863Z,75.98
2019-04-01T22:43:11.144Z,76.17
2019-04-01T22:45:37.384Z,76.36
2019-04-01T22:48:03.608Z,76.90
2019-04-01T22:50:29.848Z,76.96
2019-04-01T22:52:56.078Z,77.68
2019-04-01T22:55:22.313Z,77.79
2019-04-01T22:57:48.544Z,77.98
2019-04-01T23:00:14.883Z,78.70
2019-04-01T23:02:42.249Z,78.92
2019-04-01T23:05:09.252Z,78.03
2019-04-01T23:07:35.494Z,77.59
2019-04-01T23:10:43.043Z,77.67
2019-04-01T23:13:09.270Z,77.64
2019-04-01T23:15:35.508Z,77.14
2019-04-01T23:18:01.762Z,76.91
2019-04-01T23:20:28.007Z,76.31
2019-04-01T23:22:54.250Z,77.21
2019-04-01T23:25:20.476Z,76.43
2019-04-01T23:27:46.730Z,76.45
2019-04-01T23:30:13.078Z,76.50
2019-04-01T23:32:41.668Z,76.25
2019-04-01T23:35:07.569Z,76.33
2019-04-01T23:37:33.806Z,76.09
2019-04-01T23:40:00.054Z,75.60
2019-04-01T23:42:28.060Z,75.96
2019-04-01T23:44:54.422Z,76.30
2019-04-01T23:48:01.966Z,76.58
2019-04-01T23:50:28.196Z,77.51
2019-04-01T23:52:54.439Z,77.85
2019-04-01T23:55:20.662Z,77.98
2019-04-01T23:57:46.898Z,78.12
